createdAt,value
2018-12-19T00:00:22.823Z,93.47
2018-12-19T00:02:52.253Z,94.05
2018-12-19T00:05:21.758Z,93.56
2018-12-19T00:07:51.068Z,93.88
2018-12-19T00:10:20.360Z,92.88
2018-12-19T00:12:49.728Z,93.00
2018-12-19T00:15:19.059Z,92.16
2018-12-19T00:17:48.360Z,92.54
2018-12-19T00:20:17.604Z,92.58
2018-12-19T00:22:46.896Z,92.78
2018-12-19T00:25:16.429Z,92.89
2018-12-19T00:27:45.980Z,93.28
2018-12-19T00:30:15.345Z,92.53
2018-12-19T00:32:44.829Z,92.52
2018-12-19T00:35:14.101Z,92.56
2018-12-19T00:37:43.429Z,92.34
2018-12-19T00:40:12.711Z,90.77
2018-12-19T00:42:42.208Z,91.23
2018-12-19T00:45:11.511Z,90.94
2018-12-19T00:47:40.838Z,90.38
2018-12-19T00:50:10.444Z,89.87
2018-12-19T00:52:39.744Z,89.76
2018-12-19T00:55:09.336Z,89.50
2018-12-19T00:57:38.628Z,89.26
2018-12-19T01:00:09.444Z,88.85
2018-12-19T01:02:38.749Z,88.92
2018-12-19T01:05:08.112Z,89.16
2018-12-19T01:07:37.469Z,88.34
2018-12-19T01:10:07.213Z,88.24
2018-12-19T01:12:36.613Z,88.04
2018-12-19T01:15:07.174Z,87.75
2018-12-19T01:17:36.436Z,87.41
2018-12-19T01:20:06.322Z,87.52
2018-12-19T01:22:35.692Z,86.49
2018-12-19T01:25:05.500Z,87.10
2018-12-19T01:27:34.800Z,85.96
2018-12-19T01:30:04.504Z,87.07
2018-12-19T01:32:33.797Z,86.16
2018-12-19T01:35:03.190Z,85.60
2018-12-19T01:37:32.479Z,85.60
2018-12-19T01:40:01.893Z,85.12
2018-12-19T01:42:31.140Z,85.73
2018-12-19T01:45:00.456Z,86.46
2018-12-19T01:47:29.760Z,85.89
2018-12-19T01:49:59.101Z,86.01
2018-12-19T01:52:28.424Z,84.65
2018-12-19T01:54:57.664Z,85.21
2018-12-19T01:57:26.912Z,84.83
2018-12-19T01:59:56.167Z,85.17
2018-12-19T02:02:25.531Z,85.38
2018-12-19T02:04:54.868Z,85.55
2018-12-19T02:07:24.198Z,86.15
2018-12-19T02:09:53.550Z,85.54
2018-12-19T02:12:22.864Z,84.10
2018-12-19T02:14:52.222Z,82.85
2018-12-19T02:17:21.496Z,84.22
2018-12-19T02:19:50.781Z,84.75
2018-12-19T02:22:20.064Z,84.67
2018-12-19T02:24:49.370Z,83.24
2018-12-19T02:27:18.682Z,82.51
2018-12-19T02:29:48.017Z,81.44
2018-12-19T02:32:17.397Z,80.71
2018-12-19T02:34:46.683Z,80.66
2018-12-19T02:37:15.941Z,80.96
2018-12-19T02:39:45.226Z,81.43
2018-12-19T02:42:14.602Z,81.27
2018-12-19T02:44:43.992Z,81.43
2018-12-19T02:47:13.317Z,81.39
2018-12-19T02:49:43.735Z,80.33
2018-12-19T02:52:13.155Z,81.28
2018-12-19T02:54:42.780Z,83.13
2018-12-19T02:57:12.176Z,83.88
2018-12-19T02:59:41.610Z,83.16
2018-12-19T03:02:10.891Z,83.81
2018-12-19T03:04:40.335Z,83.84
2018-12-19T03:07:09.729Z,82.97
2018-12-19T03:09:42.860Z,82.82
2018-12-19T03:12:10.288Z,82.81
2018-12-19T03:14:39.603Z,82.65
2018-12-19T03:17:08.994Z,83.09
2018-12-19T03:19:38.343Z,82.61
2018-12-19T03:22:07.705Z,82.36
2018-12-19T03:24:37.075Z,82.51
2018-12-19T03:27:06.347Z,81.89
2018-12-19T03:29:35.617Z,81.46
2018-12-19T03:32:04.975Z,80.61
2018-12-19T03:34:34.304Z,80.85
2018-12-19T03:37:03.543Z,80.01
2018-12-19T03:39:32.913Z,81.04
2018-12-19T03:42:02.234Z,81.16
2018-12-19T03:44:31.597Z,81.91
2018-12-19T03:47:00.909Z,81.35
2018-12-19T03:49:30.219Z,80.23
2018-12-19T03:51:59.512Z,80.42
2018-12-19T03:54:30.137Z,80.54
2018-12-19T03:56:59.727Z,80.60
2018-12-19T03:59:29.209Z,81.37
2018-12-19T04:01:58.510Z,80.14
2018-12-19T04:07:07.791Z,79.46
2018-12-19T04:09:37.130Z,79.44
2018-12-19T04:12:06.632Z,79.67
2018-12-19T04:14:36.120Z,80.28
2018-12-19T04:17:05.408Z,78.32
2018-12-19T04:19:34.752Z,78.98
2018-12-19T04:22:04.222Z,78.79
2018-12-19T04:24:33.662Z,78.40
2018-12-19T04:27:03.063Z,77.74
2018-12-19T04:29:33.049Z,77.86
2018-12-19T04:32:02.409Z,77.94
2018-12-19T04:34:31.803Z,76.66
2018-12-19T04:37:01.160Z,77.19
2018-12-19T04:39:30.438Z,76.39
2018-12-19T04:41:59.561Z,77.18
2018-12-19T04:44:28.847Z,77.09
2018-12-19T04:46:58.126Z,76.13
2018-12-19T04:49:27.395Z,75.21
2018-12-19T04:51:56.713Z,75.47
2018-12-19T04:54:26.029Z,75.50
2018-12-19T04:56:55.359Z,75.21
2018-12-19T04:59:24.625Z,74.27
2018-12-19T05:01:53.659Z,75.23
2018-12-19T05:04:22.915Z,75.24
2018-12-19T05:06:52.254Z,76.98
2018-12-19T05:09:21.538Z,77.42
2018-12-19T05:11:51.309Z,77.22
2018-12-19T05:14:20.880Z,77.76
2018-12-19T05:16:50.209Z,78.71
2018-12-19T05:19:19.514Z,78.12
2018-12-19T05:21:48.919Z,76.82
2018-12-19T05:24:18.173Z,77.93
2018-12-19T05:26:47.665Z,78.01
2018-12-19T05:29:17.012Z,78.31
2018-12-19T05:31:46.490Z,78.51
2018-12-19T05:34:15.913Z,78.44
2018-12-19T05:36:45.228Z,78.11
2018-12-19T05:39:14.555Z,78.34
2018-12-19T05:41:44.951Z,77.83
2018-12-19T05:44:14.245Z,77.85
2018-12-19T05:46:43.622Z,78.07
2018-12-19T05:49:12.912Z,78.66
2018-12-19T05:51:42.277Z,79.50
2018-12-19T05:54:11.628Z,78.41
2018-12-19T05:56:40.941Z,78.26
2018-12-19T05:59:10.219Z,75.85
2018-12-19T06:01:39.536Z,77.04
2018-12-19T06:04:08.935Z,76.75
2018-12-19T06:06:38.264Z,78.19
2018-12-19T06:09:08.550Z,77.84
2018-12-19T06:11:37.904Z,78.97
2018-12-19T06:14:07.201Z,79.08
2018-12-19T06:16:36.615Z,78.68
2018-12-19T06:19:05.920Z,77.89
2018-12-19T06:21:35.261Z,78.29
2018-12-19T06:24:04.679Z,77.53
2018-12-19T06:26:33.988Z,78.34
2018-12-19T06:29:03.454Z,79.87
2018-12-19T06:31:32.868Z,80.07
2018-12-19T06:34:02.566Z,81.20
2018-12-19T06:36:32.173Z,84.11
2018-12-19T06:39:01.593Z,86.12
2018-12-19T06:41:30.927Z,86.57
2018-12-19T06:44:00.587Z,86.39
2018-12-19T06:46:29.963Z,89.18
2018-12-19T06:48:59.272Z,89.24
2018-12-19T06:51:28.552Z,86.98
2018-12-19T06:53:57.838Z,89.33
2018-12-19T06:56:27.202Z,89.96
2018-12-19T06:58:56.632Z,90.51
2018-12-19T07:01:25.959Z,90.26
2018-12-19T07:03:55.292Z,91.41
2018-12-19T07:06:24.716Z,92.50
2018-12-19T07:08:54.066Z,92.96
2018-12-19T07:11:24.240Z,94.34
2018-12-19T07:13:53.605Z,95.29
2018-12-19T07:16:23.038Z,96.09
2018-12-19T07:18:52.384Z,96.50
2018-12-19T07:21:21.712Z,97.13
2018-12-19T07:23:50.992Z,97.73
2018-12-19T07:26:20.319Z,98.38
2018-12-19T07:28:49.688Z,98.57
2018-12-19T07:31:19.008Z,97.28
2018-12-19T07:33:48.309Z,98.13
2018-12-19T07:36:17.686Z,98.05
2018-12-19T07:38:47.216Z,97.71
2018-12-19T07:41:16.527Z,96.68
2018-12-19T07:43:45.891Z,96.90
2018-12-19T07:46:19.798Z,96.66
2018-12-19T07:48:46.518Z,95.20
2018-12-19T07:51:15.784Z,95.13
2018-12-19T07:53:45.118Z,94.29
2018-12-19T07:56:15.735Z,94.00
2018-12-19T07:58:45.028Z,94.86
2018-12-19T08:01:14.366Z,94.89
2018-12-19T08:03:43.727Z,93.01
2018-12-19T08:06:13.191Z,94.81
2018-12-19T08:08:42.456Z,95.46
2018-12-19T08:11:11.738Z,95.29
2018-12-19T08:13:41.032Z,93.36
2018-12-19T08:16:10.367Z,92.64
2018-12-19T08:18:39.672Z,94.44
2018-12-19T08:21:08.984Z,95.87
2018-12-19T08:23:38.262Z,96.37
2018-12-19T08:26:07.622Z,98.12
2018-12-19T08:28:37.397Z,97.85
2018-12-19T08:31:06.790Z,98.04
2018-12-19T08:33:36.051Z,98.75
2018-12-19T08:36:05.549Z,98.96
2018-12-19T08:38:34.864Z,97.47
2018-12-19T08:41:04.335Z,98.51
2018-12-19T08:43:33.601Z,99.79
2018-12-19T08:46:02.995Z,99.48
2018-12-19T08:48:32.408Z,99.20
2018-12-19T08:51:01.663Z,99.10
2018-12-19T08:53:31.048Z,97.71
2018-12-19T08:56:00.408Z,99.00
2018-12-19T08:58:29.714Z,98.58
2018-12-19T09:00:59.169Z,98.77
2018-12-19T09:03:28.456Z,98.25
2018-12-19T09:05:57.851Z,97.85
2018-12-19T09:08:27.213Z,97.75
2018-12-19T09:10:56.528Z,98.87
2018-12-19T09:13:25.843Z,98.86
2018-12-19T09:15:55.189Z,97.79
2018-12-19T09:18:24.511Z,98.58
2018-12-19T09:20:53.744Z,98.04
2018-12-19T09:23:23.025Z,97.91
2018-12-19T09:25:52.959Z,98.61
2018-12-19T09:28:22.383Z,97.92
2018-12-19T09:30:51.637Z,97.41
2018-12-19T09:33:27.177Z,97.14
2018-12-19T09:35:52.164Z,96.23
2018-12-19T09:38:21.430Z,96.80
2018-12-19T09:40:50.803Z,97.09
2018-12-19T09:43:20.127Z,97.63
2018-12-19T09:45:49.393Z,96.22
2018-12-19T09:48:18.843Z,95.94
2018-12-19T09:50:48.143Z,95.62
2018-12-19T09:53:17.873Z,96.59
2018-12-19T09:55:47.312Z,96.87
2018-12-19T09:58:16.603Z,97.13
2018-12-19T10:00:45.953Z,98.22
2018-12-19T10:03:15.284Z,97.71
2018-12-19T10:05:44.655Z,97.49
2018-12-19T10:08:13.933Z,97.88
2018-12-19T10:10:43.224Z,98.40
2018-12-19T10:13:12.602Z,97.15
2018-12-19T10:15:42.108Z,96.91
2018-12-19T10:18:11.377Z,96.85
2018-12-19T10:20:40.719Z,96.19
2018-12-19T10:23:10.033Z,95.64
2018-12-19T10:25:39.412Z,96.89
2018-12-19T10:28:08.692Z,96.88
2018-12-19T10:30:43.112Z,95.53
2018-12-19T10:33:12.407Z,95.82
2018-12-19T10:35:41.695Z,95.78
2018-12-19T10:38:10.981Z,96.09
2018-12-19T10:40:40.280Z,97.14
2018-12-19T10:43:09.683Z,96.99
2018-12-19T10:45:38.984Z,97.29
2018-12-19T10:48:08.396Z,97.11
2018-12-19T10:50:37.701Z,97.15
2018-12-19T10:53:06.948Z,95.89
2018-12-19T10:55:36.219Z,96.58
2018-12-19T10:58:05.509Z,96.54
2018-12-19T11:00:40.189Z,96.92
2018-12-19T11:03:09.460Z,96.57
2018-12-19T11:05:38.848Z,97.58
2018-12-19T11:08:08.245Z,98.35
2018-12-19T11:10:37.636Z,98.12
2018-12-19T11:13:06.944Z,97.36
2018-12-19T11:15:36.222Z,97.47
2018-12-19T11:18:05.606Z,96.93
2018-12-19T11:20:34.899Z,98.09
2018-12-19T11:23:04.268Z,97.66
2018-12-19T11:25:33.632Z,97.40
2018-12-19T11:28:03.027Z,96.63
2018-12-19T11:30:32.307Z,96.54
2018-12-19T11:33:01.641Z,96.67
2018-12-19T11:35:30.892Z,96.55
2018-12-19T11:38:00.235Z,97.71
2018-12-19T11:40:29.726Z,97.89
2018-12-19T11:42:59.071Z,98.06
2018-12-19T11:45:28.315Z,98.64
2018-12-19T11:47:57.726Z,98.58
2018-12-19T11:50:27.020Z,99.28
2018-12-19T11:52:56.351Z,98.96
2018-12-19T11:55:25.690Z,99.56
2018-12-19T11:57:55.052Z,98.84
2018-12-19T12:03:06.197Z,98.64
2018-12-19T12:05:35.461Z,99.24
2018-12-19T12:08:05.374Z,99.29
2018-12-19T12:10:34.750Z,98.88
2018-12-19T12:13:04.206Z,99.11
2018-12-19T12:15:33.563Z,99.06
2018-12-19T12:18:02.935Z,97.33
2018-12-19T12:20:32.216Z,97.15
2018-12-19T12:23:01.913Z,97.56
2018-12-19T12:25:31.286Z,97.69
2018-12-19T12:28:00.656Z,97.87
2018-12-19T12:30:29.976Z,98.25
2018-12-19T12:32:59.287Z,98.75
2018-12-19T12:35:28.631Z,99.38
2018-12-19T12:37:57.933Z,98.64
2018-12-19T12:40:27.209Z,98.27
2018-12-19T12:42:56.536Z,97.41
2018-12-19T12:45:26.041Z,98.79
2018-12-19T12:47:55.419Z,98.67
2018-12-19T12:50:25.015Z,98.82
2018-12-19T12:52:54.500Z,99.07
2018-12-19T12:55:23.745Z,98.74
2018-12-19T12:57:53.097Z,97.35
2018-12-19T13:00:22.599Z,97.66
2018-12-19T13:02:51.945Z,97.29
2018-12-19T13:05:23.221Z,97.59
2018-12-19T13:07:52.575Z,99.03
2018-12-19T13:10:22.164Z,100.00
2018-12-19T13:12:51.669Z,100.00
2018-12-19T13:15:26.344Z,99.88
2018-12-19T13:17:56.166Z,100.00
2018-12-19T13:20:25.463Z,100.00
2018-12-19T13:22:54.843Z,100.00
2018-12-19T13:25:24.237Z,100.00
2018-12-19T13:27:53.700Z,100.00
2018-12-19T13:30:23.015Z,99.85
2018-12-19T13:32:52.517Z,100.00
2018-12-19T13:35:21.935Z,100.00
2018-12-19T13:37:51.510Z,100.00
2018-12-19T13:40:20.880Z,100.00
2018-12-19T13:42:50.415Z,100.00
2018-12-19T13:45:19.813Z,100.00
2018-12-19T13:47:49.224Z,100.00
2018-12-19T13:50:18.644Z,100.00
2018-12-19T13:52:47.916Z,100.00
2018-12-19T13:55:17.437Z,100.00
2018-12-19T13:57:46.916Z,100.00
2018-12-19T14:03:03.241Z,100.00
2018-12-19T14:05:32.657Z,100.00
2018-12-19T14:08:01.973Z,100.00
2018-12-19T14:10:31.231Z,100.00
2018-12-19T14:13:00.540Z,100.00
2018-12-19T14:18:12.957Z,100.00
2018-12-19T14:20:42.316Z,98.77
2018-12-19T14:23:11.600Z,98.67
2018-12-19T14:25:40.911Z,98.60
2018-12-19T14:28:10.323Z,98.71
2018-12-19T14:30:39.591Z,99.52
2018-12-19T14:33:08.924Z,99.77
2018-12-19T14:35:38.303Z,100.00
2018-12-19T14:38:07.815Z,100.00
2018-12-19T14:40:37.076Z,100.00
2018-12-19T14:43:06.467Z,100.00
2018-12-19T14:45:35.834Z,100.00
2018-12-19T14:48:05.292Z,100.00
2018-12-19T14:50:34.609Z,100.00
2018-12-19T14:53:03.912Z,100.00
2018-12-19T14:55:33.217Z,100.00
2018-12-19T14:58:02.625Z,100.00
2018-12-19T15:00:32.155Z,100.00
2018-12-19T15:03:01.514Z,100.00
2018-12-19T15:05:30.836Z,100.00
2018-12-19T15:08:00.213Z,100.00
2018-12-19T15:10:29.618Z,100.00
2018-12-19T15:12:59.419Z,100.00
2018-12-19T15:15:28.720Z,100.00
2018-12-19T15:17:58.069Z,100.00
2018-12-19T15:20:27.374Z,100.00
2018-12-19T15:22:56.752Z,100.00
2018-12-19T15:25:26.116Z,100.00
2018-12-19T15:27:55.463Z,100.00
2018-12-19T15:30:24.852Z,100.00
2018-12-19T15:32:54.608Z,100.00
2018-12-19T15:35:23.911Z,100.00
2018-12-19T15:37:53.295Z,100.00
2018-12-19T15:40:22.593Z,100.00
2018-12-19T15:42:51.839Z,100.00
2018-12-19T15:45:21.104Z,100.00
2018-12-19T15:47:50.443Z,100.00
2018-12-19T15:50:19.696Z,100.00
2018-12-19T15:52:49.115Z,100.00
2018-12-19T15:55:18.636Z,100.00
2018-12-19T15:57:47.943Z,100.00
2018-12-19T16:00:17.402Z,100.00
2018-12-19T16:02:47.734Z,100.00
2018-12-19T16:05:17.135Z,100.00
2018-12-19T16:07:46.422Z,100.00
2018-12-19T16:10:15.876Z,100.00
2018-12-19T16:12:45.177Z,100.00
2018-12-19T16:15:14.616Z,100.00
2018-12-19T16:17:43.917Z,100.00
2018-12-19T16:20:13.334Z,100.00
2018-12-19T16:22:42.648Z,100.00
2018-12-19T16:25:12.042Z,100.00
2018-12-19T16:27:41.396Z,100.00
2018-12-19T16:30:11.346Z,100.00
2018-12-19T16:32:40.749Z,100.00
2018-12-19T16:37:54.007Z,100.00
2018-12-19T16:40:23.496Z,100.00
2018-12-19T16:42:52.929Z,100.00
2018-12-19T16:45:22.271Z,100.00
2018-12-19T16:47:52.799Z,100.00
2018-12-19T16:50:22.121Z,100.00
2018-12-19T16:52:51.507Z,100.00
2018-12-19T16:55:20.840Z,100.00
2018-12-19T16:57:50.252Z,100.00
2018-12-19T17:00:19.675Z,100.00
2018-12-19T17:02:49.084Z,100.00
2018-12-19T17:05:18.545Z,100.00
2018-12-19T17:07:50.199Z,100.00
2018-12-19T17:10:19.739Z,100.00
2018-12-19T17:12:52.781Z,100.00
2018-12-19T17:15:20.452Z,100.00
2018-12-19T17:17:49.795Z,100.00
2018-12-19T17:20:19.223Z,100.00
2018-12-19T17:22:48.512Z,100.00
2018-12-19T17:25:17.897Z,100.00
2018-12-19T17:27:47.173Z,100.00
2018-12-19T17:30:16.466Z,100.00
2018-12-19T17:32:45.744Z,100.00
2018-12-19T17:35:15.048Z,100.00
2018-12-19T17:39:08.824Z,100.00
2018-12-19T17:41:38.230Z,100.00
2018-12-19T17:44:07.614Z,100.00
2018-12-19T17:46:37.018Z,100.00
2018-12-19T17:49:06.304Z,100.00
2018-12-19T17:51:35.609Z,100.00
2018-12-19T17:54:05.120Z,100.00
2018-12-19T17:56:34.614Z,100.00
2018-12-19T17:59:04.160Z,100.00
2018-12-19T18:01:34.777Z,100.00
2018-12-19T18:04:04.359Z,100.00
2018-12-19T18:06:33.817Z,100.00
2018-12-19T18:09:04.584Z,100.00
2018-12-19T18:11:34.005Z,100.00
2018-12-19T18:14:03.735Z,100.00
2018-12-19T18:16:33.083Z,100.00
2018-12-19T18:19:02.552Z,99.98
2018-12-19T18:21:31.990Z,96.12
2018-12-19T18:24:01.439Z,95.36
2018-12-19T18:26:30.918Z,94.61
2018-12-19T18:29:00.241Z,93.22
2018-12-19T18:31:29.540Z,93.19
2018-12-19T18:33:58.933Z,92.43
2018-12-19T18:36:28.368Z,92.75
2018-12-19T18:38:57.641Z,92.86
2018-12-19T18:41:26.965Z,92.87
2018-12-19T18:43:56.239Z,92.70
2018-12-19T18:46:25.529Z,92.62
2018-12-19T18:48:54.936Z,92.16
2018-12-19T18:51:24.233Z,92.39
2018-12-19T18:53:53.767Z,92.88
2018-12-19T18:56:23.220Z,91.95
2018-12-19T18:58:52.677Z,92.49
2018-12-19T19:01:22.124Z,92.21
2018-12-19T19:03:51.483Z,91.15
2018-12-19T19:06:21.566Z,92.33
2018-12-19T19:08:50.987Z,92.52
2018-12-19T19:11:20.374Z,93.73
2018-12-19T19:14:52.421Z,93.48
2018-12-19T19:17:21.729Z,92.20
2018-12-19T19:19:51.012Z,91.65
2018-12-19T19:22:20.710Z,90.63
2018-12-19T19:24:50.067Z,90.62
2018-12-19T19:27:19.546Z,91.31
2018-12-19T19:29:48.941Z,90.54
2018-12-19T19:32:18.869Z,91.00
2018-12-19T19:34:48.745Z,89.78
2018-12-19T19:37:18.298Z,89.33
2018-12-19T19:39:47.638Z,89.33
2018-12-19T19:42:17.068Z,89.32
2018-12-19T19:44:46.365Z,89.36
2018-12-19T19:47:15.932Z,89.76
2018-12-19T19:49:45.254Z,88.68
2018-12-19T19:52:14.357Z,88.24
2018-12-19T19:54:43.749Z,88.42
2018-12-19T19:57:13.372Z,89.31
2018-12-19T19:59:42.938Z,90.04
2018-12-19T20:02:12.389Z,90.73
2018-12-19T20:04:41.816Z,90.94
2018-12-19T20:07:11.375Z,91.41
2018-12-19T20:09:40.763Z,90.66
2018-12-19T20:12:10.085Z,91.59
2018-12-19T20:14:39.505Z,91.10
2018-12-19T20:17:08.912Z,90.93
2018-12-19T20:19:38.198Z,91.00
2018-12-19T20:22:07.524Z,90.31
2018-12-19T20:24:37.195Z,90.97
2018-12-19T20:27:06.829Z,90.42
2018-12-19T20:29:37.314Z,90.44
2018-12-19T20:32:06.867Z,90.69
2018-12-19T20:34:36.375Z,91.21
2018-12-19T20:37:05.812Z,92.09
2018-12-19T20:39:35.255Z,91.82
2018-12-19T20:42:04.723Z,92.83
2018-12-19T20:44:34.065Z,93.21
2018-12-19T20:47:03.372Z,93.02
2018-12-19T20:49:32.751Z,94.05
2018-12-19T20:52:02.248Z,94.81
2018-12-19T20:54:31.525Z,94.94
2018-12-19T20:57:00.942Z,95.30
2018-12-19T20:59:30.439Z,94.75
2018-12-19T21:01:59.891Z,94.72
2018-12-19T21:04:29.187Z,96.04
2018-12-19T21:06:58.555Z,96.09
2018-12-19T21:09:28.070Z,97.30
2018-12-19T21:11:57.500Z,97.35
2018-12-19T21:14:26.558Z,97.19
2018-12-19T21:17:01.267Z,97.15
2018-12-19T21:19:30.551Z,97.42
2018-12-19T21:21:59.998Z,97.13
2018-12-19T21:24:29.296Z,97.21
2018-12-19T21:26:58.560Z,96.52
2018-12-19T21:29:27.836Z,96.61
2018-12-19T21:31:57.189Z,97.17
2018-12-19T21:34:26.474Z,97.03
2018-12-19T21:36:55.804Z,96.20
2018-12-19T21:39:25.198Z,97.01
2018-12-19T21:41:54.721Z,96.90
2018-12-19T21:44:24.137Z,97.30
2018-12-19T21:46:53.717Z,96.86
2018-12-19T21:49:23.083Z,95.75
2018-12-19T21:51:52.381Z,97.35
2018-12-19T21:54:21.670Z,97.22
2018-12-19T21:56:51.101Z,97.53
2018-12-19T21:59:20.476Z,97.26
2018-12-19T22:01:49.800Z,97.44
2018-12-19T22:04:19.142Z,96.37
2018-12-19T22:06:48.544Z,96.69
2018-12-19T22:09:17.781Z,97.19
2018-12-19T22:11:47.176Z,96.81
2018-12-19T22:14:16.543Z,95.61
2018-12-19T22:16:51.124Z,95.50
2018-12-19T22:19:20.458Z,95.61
2018-12-19T22:21:49.970Z,95.30
2018-12-19T22:24:19.371Z,94.55
2018-12-19T22:26:48.941Z,94.07
2018-12-19T22:29:18.260Z,94.21
2018-12-19T22:31:47.709Z,93.98
2018-12-19T22:34:17.008Z,94.03
2018-12-19T22:36:46.529Z,93.89
2018-12-19T22:39:18.752Z,93.75
2018-12-19T22:41:48.637Z,93.05
2018-12-19T22:44:17.891Z,93.63
2018-12-19T22:46:47.283Z,93.28
2018-12-19T22:49:16.619Z,93.17
2018-12-19T22:51:46.058Z,92.94
2018-12-19T22:54:15.510Z,93.04
2018-12-19T22:56:44.788Z,93.32
2018-12-19T22:59:14.097Z,93.29
2018-12-19T23:06:39.528Z,93.16
2018-12-19T23:09:08.964Z,93.33
2018-12-19T23:11:38.414Z,93.12
2018-12-19T23:14:07.833Z,93.13
2018-12-19T23:16:39.455Z,93.84
2018-12-19T23:19:09.049Z,94.03
2018-12-19T23:21:38.448Z,93.61
2018-12-19T23:24:07.754Z,93.61
2018-12-19T23:26:37.236Z,94.42
2018-12-19T23:29:06.763Z,94.08
2018-12-19T23:31:36.173Z,93.98
2018-12-19T23:34:05.664Z,94.24
2018-12-19T23:36:35.113Z,94.89
2018-12-19T23:39:07.665Z,96.09
2018-12-19T23:41:37.075Z,96.36
2018-12-19T23:44:06.463Z,95.70
2018-12-19T23:46:35.868Z,95.52
2018-12-19T23:49:05.355Z,95.61
2018-12-19T23:51:34.766Z,96.34
2018-12-19T23:54:04.181Z,96.47
2018-12-19T23:56:33.484Z,96.43
2018-12-19T23:59:02.803Z,96.63
